Time;durP1;ratioP1;P1;durP2;ratioP2;P2;SDS_P1;SDS_P2;PMS_P1;PMS_P2;Temp;Humidity;BMP_temperature;BMP_pressure;BME280_temperature;BME280_humidity;BME280_pressure;Samples;Min_cycle;Max_cycle;Signal;HPM_P1;HPM_P2
2023/01/04 00:00:31;;;;;;;10.40;3.70;;;12.50;99.90;;;;;;4986111;28;20034;-65
2023/01/04 00:02:57;;;;;;;6.03;3.15;;;12.60;99.90;;;;;;4994262;28;20036;-65
2023/01/04 00:05:22;;;;;;;8.18;3.30;;;12.20;99.90;;;;;;4978183;28;20048;-65
2023/01/04 00:07:48;;;;;;;7.40;4.28;;;11.20;99.90;;;;;;4966925;28;20081;-65
2023/01/04 00:10:13;;;;;;;9.20;3.40;;;12.80;99.90;;;;;;4985617;28;20052;-65
2023/01/04 00:12:39;;;;;;;5.78;3.22;;;12.70;99.90;;;;;;4991898;28;20042;-65
2023/01/04 00:15:05;;;;;;;12.40;4.20;;;11.20;99.90;;;;;;4961753;28;20084;-65
2023/01/04 00:17:31;;;;;;;7.20;3.60;;;12.80;99.90;;;;;;4973953;28;20045;-65
2023/01/04 00:19:56;;;;;;;10.63;3.72;;;12.80;99.90;;;;;;4980238;28;20034;-65
2023/01/04 00:22:22;;;;;;;6.35;3.88;;;12.60;99.90;;;;;;5011020;28;20081;-65
2023/01/04 00:24:47;;;;;;;11.52;3.75;;;11.30;99.90;;;;;;4999719;28;20061;-65
2023/01/04 00:27:13;;;;;;;5.65;3.92;;;12.60;99.90;;;;;;4995993;28;20037;-65
2023/01/04 00:29:38;;;;;;;6.13;3.03;;;11.50;99.90;;;;;;4980731;28;20097;-65
2023/01/04 00:32:04;;;;;;;9.25;3.42;;;12.30;99.90;;;;;;4993445;28;20483;-65
2023/01/04 00:34:29;;;;;;;8.45;3.20;;;11.70;99.90;;;;;;4977160;28;20042;-65
2023/01/04 00:36:55;;;;;;;9.57;3.72;;;11.10;99.90;;;;;;4965362;28;20514;-65
2023/01/04 00:39:21;;;;;;;6.35;3.00;;;12.90;99.90;;;;;;4976146;28;20213;-65
2023/01/04 00:41:49;;;;;;;5.68;3.10;;;12.80;99.90;;;;;;4977592;28;20046;-65
2023/01/04 00:44:15;;;;;;;5.55;2.92;;;12.20;99.90;;;;;;4964375;28;20049;-65
2023/01/04 00:46:41;;;;;;;11.52;3.30;;;11.20;99.90;;;;;;4981610;28;20412;-65
2023/01/04 00:49:09;;;;;;;9.32;3.13;;;13.10;99.90;;;;;;5000430;28;20523;-65
2023/01/04 00:51:36;;;;;;;7.72;3.30;;;12.60;99.90;;;;;;4990179;28;20043;-65
2023/01/04 00:54:03;;;;;;;6.43;3.30;;;11.70;99.90;;;;;;4974289;28;20049;-65
2023/01/04 00:56:29;;;;;;;8.30;3.60;;;10.90;99.90;;;;;;4976694;28;20030;-65
2023/01/04 00:58:56;;;;;;;3.70;2.95;;;13.00;99.90;;;;;;4979922;28;20045;-65
2023/01/04 01:01:23;;;;;;;6.50;3.33;;;13.30;99.90;;;;;;4957788;28;20373;-67
2023/01/04 01:03:55;;;;;;;6.40;3.30;;;13.40;99.90;;;;;;4973853;28;20070;-65
2023/01/04 01:06:23;;;;;;;8.27;3.60;;;13.40;99.90;;;;;;4989768;28;20496;-65
2023/01/04 01:08:49;;;;;;;7.78;3.30;;;13.60;99.90;;;;;;4978571;28;20129;-65
2023/01/04 01:11:15;;;;;;;3.72;3.33;;;10.80;99.90;;;;;;4985003;28;20113;-64
2023/01/04 01:13:40;;;;;;;7.80;3.00;;;12.60;99.90;;;;;;4973317;28;20035;-65
2023/01/04 01:16:09;;;;;;;4.97;2.85;;;13.40;99.90;;;;;;4981351;28;20096;-65
2023/01/04 01:18:37;;;;;;;4.50;2.50;;;13.30;99.90;;;;;;4981577;28;20038;-65
2023/01/04 01:21:09;;;;;;;4.65;2.85;;;12.40;99.90;;;;;;4965671;28;20038;-65
2023/01/04 01:23:34;;;;;;;5.93;2.92;;;10.50;99.90;;;;;;4980309;28;20034;-65
2023/01/04 01:26:01;;;;;;;8.95;2.97;;;12.70;99.90;;;;;;4982565;28;20047;-65
2023/01/04 01:28:28;;;;;;;6.07;3.03;;;13.80;99.90;;;;;;4990003;28;20113;-65
2023/01/04 01:30:53;;;;;;;6.13;2.58;;;11.00;99.90;;;;;;4967407;28;20035;-65
2023/01/04 01:33:19;;;;;;;7.55;2.65;;;10.70;99.90;;;;;;5000517;28;20088;-65
2023/01/04 01:35:44;;;;;;;3.35;2.45;;;11.20;99.90;;;;;;4974352;28;20462;-65
2023/01/04 01:38:10;;;;;;;3.38;2.67;;;13.70;99.90;;;;;;4975269;28;20429;-65
2023/01/04 01:40:40;;;;;;;5.13;2.80;;;10.70;99.90;;;;;;4995304;28;20047;-65
2023/01/04 01:43:18;;;;;;;6.30;2.25;;;11.10;99.90;;;;;;4989871;28;20042;-65
2023/01/04 01:45:48;;;;;;;3.58;2.30;;;13.30;99.90;;;;;;5007913;28;20492;-65
2023/01/04 01:48:20;;;;;;;4.70;2.40;;;14.10;99.90;;;;;;5003068;28;20080;-65
2023/01/04 01:50:50;;;;;;;4.85;2.90;;;10.40;99.90;;;;;;5003986;28;20039;-65
2023/01/04 01:53:16;;;;;;;3.55;2.42;;;11.30;99.90;;;;;;4973894;28;20120;-64
2023/01/04 01:55:44;;;;;;;3.10;2.10;;;13.40;99.90;;;;;;4989448;28;20038;-64
2023/01/04 01:58:17;;;;;;;2.08;1.85;;;10.60;99.90;;;;;;4990905;28;20029;-64
2023/01/04 02:00:42;;;;;;;1.80;1.60;;;10.20;99.90;;;;;;4986908;28;20096;-64
2023/01/04 02:03:15;;;;;;;6.43;2.20;;;13.70;99.90;;;;;;4981149;28;20476;-64
2023/01/04 02:05:42;;;;;;;2.65;1.92;;;10.60;99.90;;;;;;4995157;28;20110;-64
2023/01/04 02:08:09;;;;;;;2.15;1.70;;;10.20;99.90;;;;;;4986161;28;20049;-64
2023/01/04 02:10:35;;;;;;;4.13;2.30;;;13.90;99.90;;;;;;4986636;28;20078;-64
2023/01/04 02:13:12;;;;;;;7.50;2.13;;;14.10;99.90;;;;;;4978539;28;20527;-65
2023/01/04 02:15:51;;;;;;;2.40;1.83;;;10.60;99.90;;;;;;4976815;28;20088;-64
2023/01/04 02:18:23;;;;;;;3.05;2.17;;;13.40;99.90;;;;;;5001701;28;20034;-64
2023/01/04 02:21:02;;;;;;;1.83;1.67;;;10.40;99.90;;;;;;4992164;28;20042;-65
2023/01/04 02:23:56;;;;;;;1.88;1.70;;;9.90;99.90;;;;;;4985249;28;20113;-65
2023/01/04 02:27:06;;;;;;;4.30;1.77;;;12.60;99.90;;;;;;4984669;28;20046;-65
2023/01/04 02:29:44;;;;;;;3.25;2.20;;;10.10;99.90;;;;;;4994004;28;20046;-65
2023/01/04 02:32:43;;;;;;;2.30;1.80;;;13.00;99.90;;;;;;4995983;28;20061;-64
2023/01/04 02:35:25;;;;;;;3.08;1.80;;;10.60;99.90;;;;;;4992705;28;20065;-65
2023/01/04 02:37:58;;;;;;;3.08;2.35;;;9.40;99.90;;;;;;4993023;28;20053;-64
2023/01/04 02:40:42;;;;;;;2.15;1.80;;;12.60;99.90;;;;;;4999773;28;20073;-65
2023/01/04 02:46:23;;;;;;;2.67;2.03;;;10.70;99.90;;;;;;4981280;28;20097;-64
2023/01/04 02:51:35;;;;;;;5.43;3.03;;;9.90;99.90;;;;;;4984475;28;20419;-64
2023/01/04 02:54:12;;;;;;;7.25;3.00;;;13.60;99.90;;;;;;4986030;28;20491;-64
2023/01/04 02:57:06;;;;;;;5.65;2.60;;;14.00;99.90;;;;;;4981838;28;20045;-64
2023/01/04 02:59:50;;;;;;;7.90;2.33;;;13.20;99.90;;;;;;4991735;28;20046;-64
2023/01/04 03:06:14;;;;;;;6.15;2.05;;;10.40;99.90;;;;;;5017869;28;20046;-64
2023/01/04 03:08:39;;;;;;;9.65;2.22;;;15.00;99.90;;;;;;5005258;28;20050;-64
2023/01/04 03:13:56;;;;;;;9.50;2.20;;;13.30;99.90;;;;;;4990555;28;20470;-64
2023/01/04 03:16:25;;;;;;;4.82;2.80;;;14.90;99.90;;;;;;4981821;28;20165;-64
2023/01/04 03:18:55;;;;;;;6.82;2.30;;;10.50;99.90;;;;;;4992041;28;20042;-64
2023/01/04 03:21:23;;;;;;;10.65;2.05;;;11.30;99.90;;;;;;5008249;28;20070;-64
2023/01/04 03:35:36;;;;;;;15.05;3.50;;;16.00;99.90;;;;;;4997361;28;20085;-64
2023/01/04 03:49:59;;;;;;;10.48;3.75;;;10.20;99.90;;;;;;4984718;28;20509;-64
2023/01/04 03:52:28;;;;;;;10.32;3.20;;;12.60;99.90;;;;;;4978583;28;20064;-64
2023/01/04 03:54:56;;;;;;;9.65;3.10;;;12.20;99.90;;;;;;4994923;28;20108;-64
2023/01/04 03:57:23;;;;;;;13.68;3.25;;;12.50;99.90;;;;;;5012641;28;20144;-64
2023/01/04 03:59:54;;;;;;;16.10;2.85;;;16.20;99.90;;;;;;4989014;28;20061;-64
2023/01/04 04:02:27;;;;;;;15.38;3.60;;;15.20;99.90;;;;;;4980039;28;20045;-64
2023/01/04 04:10:20;;;;;;;16.30;4.07;;;16.20;99.90;;;;;;4984573;28;20138;-64
2023/01/04 04:12:47;;;;;;;13.20;3.40;;;11.40;99.90;;;;;;4995729;28;20287;-64
2023/01/04 04:15:14;;;;;;;12.15;3.05;;;10.40;99.90;;;;;;4984553;28;20508;-64
2023/01/04 04:17:39;;;;;;;15.70;3.70;;;12.70;99.90;;;;;;4979318;28;20689;-64
2023/01/04 04:20:05;;;;;;;11.02;3.55;;;12.10;99.90;;;;;;5007529;28;20100;-64
2023/01/04 04:22:31;;;;;;;13.80;2.70;;;14.70;99.90;;;;;;4978631;28;20116;-64
2023/01/04 04:24:57;;;;;;;9.73;2.78;;;11.70;99.90;;;;;;4990232;28;20033;-64
2023/01/04 04:27:22;;;;;;;8.85;2.83;;;14.20;99.90;;;;;;4979096;28;20072;-63
2023/01/04 04:29:48;;;;;;;14.60;3.53;;;14.10;99.90;;;;;;5007407;28;20488;-64
2023/01/04 04:32:13;;;;;;;12.80;2.92;;;14.10;99.90;;;;;;4977098;28;20500;-64
2023/01/04 04:34:39;;;;;;;11.95;3.15;;;11.60;99.90;;;;;;4978392;28;20535;-63
2023/01/04 04:37:05;;;;;;;11.25;2.70;;;14.40;99.90;;;;;;4977729;28;20488;-65
2023/01/04 04:39:31;;;;;;;12.45;3.05;;;14.30;99.90;;;;;;4962130;28;20046;-64
2023/01/04 04:41:56;;;;;;;13.48;3.30;;;12.00;99.90;;;;;;4979918;28;20039;-64
2023/01/04 04:44:22;;;;;;;18.48;3.28;;;14.80;99.90;;;;;;4983016;28;20038;-65
2023/01/04 04:46:48;;;;;;;26.58;3.90;;;13.90;99.90;;;;;;4984753;28;20439;-64
2023/01/04 04:49:15;;;;;;;13.98;3.83;;;12.40;99.90;;;;;;4984924;28;20472;-64
2023/01/04 04:51:41;;;;;;;13.57;3.60;;;14.80;99.90;;;;;;4976220;28;20042;-64
2023/01/04 04:54:09;;;;;;;7.05;1.98;;;13.00;99.90;;;;;;4980239;28;21141;-64
2023/01/04 04:56:35;;;;;;;11.70;2.90;;;12.40;99.90;;;;;;4978095;28;20051;-64
2023/01/04 04:59:02;;;;;;;9.15;2.85;;;14.80;99.90;;;;;;4992055;28;20038;-64
2023/01/04 05:01:29;;;;;;;6.35;2.22;;;13.00;99.90;;;;;;4991413;28;20046;-65
2023/01/04 05:03:55;;;;;;;11.32;2.53;;;13.50;99.90;;;;;;4984618;28;20050;-64
2023/01/04 05:06:20;;;;;;;6.43;2.30;;;13.20;99.90;;;;;;4975790;28;20030;-64
2023/01/04 05:08:46;;;;;;;8.93;2.72;;;14.20;99.90;;;;;;4984892;28;20508;-64
2023/01/04 05:11:12;;;;;;;12.48;2.35;;;14.00;99.90;;;;;;4987510;28;20042;-64
2023/01/04 05:13:38;;;;;;;9.80;2.05;;;12.90;99.90;;;;;;4975646;28;20121;-64
2023/01/04 05:16:05;;;;;;;9.75;2.15;;;13.30;99.90;;;;;;4983091;28;20448;-64
2023/01/04 05:18:31;;;;;;;12.60;2.97;;;13.00;99.90;;;;;;4980467;28;20396;-65
2023/01/04 05:20:57;;;;;;;6.60;2.20;;;12.90;99.90;;;;;;4973669;28;20066;-64
2023/01/04 05:23:23;;;;;;;11.10;2.30;;;13.10;99.90;;;;;;4979859;28;20109;-64
2023/01/04 05:25:58;;;;;;;6.28;1.98;;;13.90;99.90;;;;;;4973620;28;20050;-64
2023/01/04 05:28:24;;;;;;;6.78;2.03;;;12.90;99.90;;;;;;4985420;28;20121;-64
2023/01/04 05:30:52;;;;;;;13.77;1.95;;;13.00;99.90;;;;;;4991733;28;20038;-65
2023/01/04 05:33:18;;;;;;;6.32;1.77;;;13.60;99.90;;;;;;4986596;28;20078;-64
2023/01/04 05:35:45;;;;;;;12.60;2.38;;;13.60;99.90;;;;;;4986379;28;20180;-64
2023/01/04 05:38:10;;;;;;;9.43;2.30;;;13.40;99.90;;;;;;4981131;28;20428;-64
2023/01/04 05:40:36;;;;;;;6.85;2.15;;;13.50;99.90;;;;;;4991366;28;20092;-64
2023/01/04 05:43:02;;;;;;;9.40;2.47;;;13.70;99.90;;;;;;4973638;28;20057;-64
2023/01/04 05:45:27;;;;;;;20.08;3.85;;;14.50;99.90;;;;;;4974480;28;20078;-64
2023/01/04 05:47:53;;;;;;;13.82;3.65;;;14.50;99.90;;;;;;4977288;28;20038;-64
2023/01/04 05:50:21;;;;;;;11.50;3.22;;;13.30;99.90;;;;;;4972874;28;20503;-64
2023/01/04 05:52:47;;;;;;;13.13;3.58;;;14.50;99.90;;;;;;4974450;28;20050;-65
2023/01/04 05:55:13;;;;;;;15.45;3.60;;;14.50;99.90;;;;;;4987535;28;20043;-65
2023/01/04 05:57:39;;;;;;;25.45;4.75;;;13.60;99.90;;;;;;4981176;28;20464;-65
2023/01/04 06:00:06;;;;;;;18.80;4.60;;;13.80;99.90;;;;;;4979023;28;20567;-64
2023/01/04 06:02:32;;;;;;;38.10;6.28;;;13.60;99.90;;;;;;4988239;28;20121;-64
2023/01/04 06:04:59;;;;;;;32.45;6.18;;;14.00;99.90;;;;;;4969344;28;20133;-65
2023/01/04 06:07:25;;;;;;;27.83;5.57;;;13.40;99.90;;;;;;4974697;28;20175;-65
2023/01/04 06:09:51;;;;;;;29.30;6.35;;;13.60;99.90;;;;;;4992091;28;20069;-64
2023/01/04 06:12:17;;;;;;;39.70;6.65;;;13.60;99.90;;;;;;4987495;28;20038;-65
2023/01/04 06:14:42;;;;;;;35.65;6.15;;;14.30;99.90;;;;;;4979054;28;20031;-66
2023/01/04 06:17:08;;;;;;;46.80;7.10;;;14.00;99.90;;;;;;4972176;28;20052;-65
2023/01/04 06:19:34;;;;;;;31.60;6.00;;;13.60;99.90;;;;;;4971621;28;20101;-68
2023/01/04 06:22:00;;;;;;;38.97;6.38;;;14.10;99.90;;;;;;4975234;28;20404;-65
2023/01/04 06:24:25;;;;;;;38.80;5.88;;;13.60;99.90;;;;;;4981396;28;20034;-65
2023/01/04 06:26:51;;;;;;;36.53;5.80;;;13.90;99.90;;;;;;4976212;28;20034;-65
2023/01/04 06:29:17;;;;;;;26.65;5.40;;;14.20;99.90;;;;;;4975865;28;20073;-64
2023/01/04 06:31:43;;;;;;;25.60;5.75;;;13.00;99.90;;;;;;4982712;28;20039;-65
2023/01/04 06:34:13;;;;;;;34.20;6.65;;;13.30;99.90;;;;;;4990702;28;20176;-65
2023/01/04 06:36:40;;;;;;;39.67;7.80;;;13.50;99.90;;;;;;4979227;28;20050;-65
2023/01/04 06:39:06;;;;;;;33.80;6.20;;;13.40;99.90;;;;;;4983830;28;20068;-65
2023/01/04 06:41:32;;;;;;;28.27;6.43;;;13.60;99.90;;;;;;4978254;28;20038;-65
2023/01/04 06:43:58;;;;;;;27.08;5.13;;;14.30;99.90;;;;;;4983754;28;20037;-65
2023/01/04 06:46:23;;;;;;;42.40;5.95;;;14.60;99.90;;;;;;4981780;28;20456;-65
2023/01/04 06:48:49;;;;;;;45.70;6.68;;;14.30;99.90;;;;;;4984998;28;20207;-64
2023/01/04 06:51:15;;;;;;;35.97;6.13;;;14.40;99.90;;;;;;4975572;28;20042;-65
2023/01/04 06:53:40;;;;;;;29.10;5.65;;;13.40;99.90;;;;;;4978521;28;20065;-65
2023/01/04 06:56:08;;;;;;;29.83;6.88;;;13.30;99.90;;;;;;4970461;28;20049;-65
2023/01/04 06:58:34;;;;;;;38.40;6.68;;;13.60;99.90;;;;;;4977674;28;20034;-65
2023/01/04 07:01:00;;;;;;;39.30;7.30;;;14.00;99.90;;;;;;4975893;28;20053;-65
2023/01/04 07:03:25;;;;;;;39.58;6.07;;;15.10;99.90;;;;;;4982791;28;20062;-65
2023/01/04 07:05:52;;;;;;;32.67;6.70;;;14.50;99.90;;;;;;4988197;28;20435;-65
2023/01/04 07:08:18;;;;;;;32.20;5.68;;;15.30;99.90;;;;;;4976964;28;20555;-65
2023/01/04 07:10:43;;;;;;;29.90;5.03;;;14.40;99.90;;;;;;4979054;28;20046;-65
2023/01/04 07:13:09;;;;;;;36.85;6.20;;;14.60;99.90;;;;;;4989269;28;20143;-65
2023/01/04 07:15:35;;;;;;;28.85;5.10;;;14.40;99.90;;;;;;4985721;28;20045;-65
2023/01/04 07:18:01;;;;;;;27.08;5.13;;;14.40;99.90;;;;;;4981809;28;20039;-65
2023/01/04 07:20:27;;;;;;;34.25;6.03;;;13.80;99.90;;;;;;4980725;28;20045;-65
2023/01/04 07:22:52;;;;;;;31.88;5.38;;;15.10;99.90;;;;;;4985439;28;20038;-65
2023/01/04 07:25:18;;;;;;;25.75;5.30;;;13.90;99.90;;;;;;4987875;28;20117;-65
2023/01/04 07:27:48;;;;;;;28.67;5.00;;;13.90;99.90;;;;;;4985729;28;20500;-65
2023/01/04 07:30:14;;;;;;;22.38;4.43;;;14.20;99.90;;;;;;4991256;28;20073;-66
2023/01/04 07:32:40;;;;;;;30.98;5.47;;;14.20;99.90;;;;;;4989083;28;20066;-65
2023/01/04 07:35:06;;;;;;;35.85;5.78;;;14.00;99.90;;;;;;4975111;28;20039;-65
2023/01/04 07:37:31;;;;;;;32.60;5.65;;;15.00;99.90;;;;;;4959421;28;21220;-65
2023/01/04 07:39:57;;;;;;;30.63;5.13;;;14.00;99.90;;;;;;4979679;28;20084;-68
2023/01/04 07:42:22;;;;;;;25.85;4.03;;;15.20;99.90;;;;;;4971414;28;20404;-66
2023/01/04 07:44:48;;;;;;;26.42;4.68;;;14.90;99.90;;;;;;4988182;28;20062;-64
2023/01/04 07:47:13;;;;;;;34.88;5.10;;;13.90;99.90;;;;;;4989214;28;20042;-67
2023/01/04 07:49:39;;;;;;;27.65;5.93;;;15.10;99.90;;;;;;4985659;28;20038;-65
2023/01/04 07:52:05;;;;;;;27.67;4.75;;;15.20;99.90;;;;;;4986167;28;20473;-65
2023/01/04 07:54:30;;;;;;;37.60;5.90;;;13.50;99.90;;;;;;4987598;28;20042;-65
2023/01/04 07:56:56;;;;;;;33.15;5.68;;;13.90;99.90;;;;;;4994582;28;20038;-65
2023/01/04 07:59:22;;;;;;;28.67;5.25;;;14.10;99.90;;;;;;4977194;28;20041;-65
2023/01/04 08:01:49;;;;;;;38.75;5.90;;;14.80;99.90;;;;;;4985771;28;20041;-65
2023/01/04 08:04:16;;;;;;;36.28;7.55;;;14.90;99.90;;;;;;4962510;28;20135;-65
2023/01/04 08:06:42;;;;;;;32.25;6.25;;;14.60;99.90;;;;;;4974906;28;20042;-65
2023/01/04 08:09:10;;;;;;;37.08;6.13;;;14.00;99.90;;;;;;4983734;28;20049;-64
2023/01/04 08:11:36;;;;;;;29.52;6.72;;;13.60;99.90;;;;;;4973992;28;20043;-65
2023/01/04 08:14:02;;;;;;;30.02;7.10;;;13.80;99.90;;;;;;4975086;28;20061;-65
2023/01/04 08:16:33;;;;;;;33.78;6.75;;;15.10;99.90;;;;;;4978393;28;20129;-65
2023/01/04 08:19:07;;;;;;;31.42;6.53;;;14.90;99.90;;;;;;4990571;28;20042;-65
2023/01/04 08:21:35;;;;;;;42.13;7.35;;;14.80;99.90;;;;;;4981226;28;20481;-65
2023/01/04 08:24:01;;;;;;;33.60;6.35;;;14.70;99.90;;;;;;4981070;28;20065;-64
2023/01/04 08:26:27;;;;;;;34.35;6.22;;;14.30;99.90;;;;;;4961409;28;20449;-65
2023/01/04 08:28:55;;;;;;;41.28;8.02;;;13.70;99.90;;;;;;4977020;28;20038;-65
2023/01/04 08:31:26;;;;;;;51.40;8.35;;;15.10;99.90;;;;;;4985995;28;20043;-65
2023/01/04 08:33:53;;;;;;;40.28;6.63;;;13.80;99.90;;;;;;4974822;28;20039;-65
2023/01/04 08:36:25;;;;;;;39.25;7.85;;;14.50;99.90;;;;;;4973390;28;20101;-65
2023/01/04 08:38:53;;;;;;;49.38;8.15;;;13.60;99.90;;;;;;4966205;28;20515;-65
2023/01/04 08:41:19;;;;;;;48.78;7.32;;;14.90;99.90;;;;;;4978840;28;20420;-65
2023/01/04 08:43:45;;;;;;;47.17;8.02;;;15.30;99.90;;;;;;4982530;28;20038;-65
2023/01/04 08:46:12;;;;;;;46.35;8.13;;;14.00;99.90;;;;;;4990970;28;20045;-65
2023/01/04 08:48:38;;;;;;;38.85;7.53;;;13.40;99.90;;;;;;4984852;28;20121;-66
2023/01/04 08:51:06;;;;;;;52.78;8.65;;;14.70;99.90;;;;;;4969822;28;20050;-65
2023/01/04 08:53:32;;;;;;;53.50;7.18;;;13.70;99.90;;;;;;4990168;28;20049;-65
2023/01/04 08:55:59;;;;;;;31.77;7.45;;;13.50;99.90;;;;;;4982279;28;20165;-66
2023/01/04 08:58:26;;;;;;;53.25;7.50;;;13.50;99.90;;;;;;4986095;28;20042;-65
2023/01/04 09:00:52;;;;;;;66.93;9.25;;;14.80;99.90;;;;;;4983229;28;20041;-65
2023/01/04 09:03:17;;;;;;;60.42;8.55;;;15.20;99.90;;;;;;4990247;28;20483;-65
2023/01/04 09:05:43;;;;;;;46.38;7.57;;;13.20;99.90;;;;;;4983939;28;20370;-65
2023/01/04 09:08:09;;;;;;;51.38;8.30;;;13.40;99.90;;;;;;4977666;28;20063;-65
2023/01/04 09:10:38;;;;;;;55.95;9.07;;;13.40;99.90;;;;;;4965754;28;20081;-65
2023/01/04 09:13:04;;;;;;;59.50;8.43;;;14.10;99.90;;;;;;4976664;28;20038;-65
2023/01/04 09:15:31;;;;;;;50.92;8.43;;;14.40;99.90;;;;;;4982387;28;20426;-65
2023/01/04 09:17:57;;;;;;;67.57;7.85;;;14.60;99.90;;;;;;4981767;28;20093;-65
2023/01/04 09:20:22;;;;;;;45.60;7.53;;;15.10;99.90;;;;;;4976974;28;20073;-65
2023/01/04 09:22:48;;;;;;;52.08;8.10;;;15.60;99.90;;;;;;4980029;28;20101;-65
2023/01/04 09:25:13;;;;;;;56.47;8.77;;;15.00;99.90;;;;;;5002310;28;20042;-66
2023/01/04 09:27:40;;;;;;;46.45;7.82;;;14.10;99.90;;;;;;4990242;28;20060;-65
2023/01/04 09:30:06;;;;;;;49.97;8.27;;;13.60;99.90;;;;;;4993193;28;20120;-65
2023/01/04 09:32:32;;;;;;;54.88;9.35;;;13.80;99.90;;;;;;4991317;28;20072;-65
2023/01/04 09:34:58;;;;;;;57.53;7.88;;;14.70;99.90;;;;;;4997315;28;20503;-65
2023/01/04 09:37:23;;;;;;;41.67;7.00;;;14.40;99.90;;;;;;4977518;28;20110;-66
2023/01/04 09:39:49;;;;;;;54.53;8.90;;;14.60;99.90;;;;;;4977436;28;20075;-65
2023/01/04 09:42:38;;;;;;;49.60;6.93;;;15.00;99.90;;;;;;4982669;28;20050;-65
2023/01/04 09:45:14;;;;;;;50.58;9.55;;;14.90;99.90;;;;;;4995346;28;20038;-65
2023/01/04 09:47:40;;;;;;;;;;;14.90;99.90;;;;;;4975141;28;20042;-65
2023/01/04 09:50:17;;;;;;;53.33;9.60;;;14.30;99.90;;;;;;4972482;28;20426;-66
2023/01/04 09:52:54;;;;;;;59.88;7.93;;;15.10;99.90;;;;;;5001613;28;20121;-65
2023/01/04 09:55:28;;;;;;;45.50;7.43;;;15.00;99.90;;;;;;4966580;28;20038;-65
2023/01/04 09:58:06;;;;;;;51.65;8.68;;;13.70;99.90;;;;;;4999192;28;20046;-65
2023/01/04 10:00:42;;;;;;;52.10;8.10;;;15.00;99.90;;;;;;4980313;28;20149;-65
2023/01/04 10:03:22;;;;;;;45.90;7.50;;;13.80;99.90;;;;;;4972790;28;20396;-66
2023/01/04 10:05:48;;;;;;;55.80;8.13;;;13.40;99.90;;;;;;4990446;28;20042;-66
2023/01/04 10:08:17;;;;;;;42.25;7.22;;;13.60;99.90;;;;;;4978599;28;20480;-65
2023/01/04 10:10:55;;;;;;;51.63;8.13;;;14.00;99.90;;;;;;4978701;28;20045;-65
2023/01/04 10:13:34;;;;;;;42.90;6.80;;;14.80;99.90;;;;;;4977677;28;20049;-65
2023/01/04 10:16:36;;;;;;;40.03;7.65;;;14.30;99.90;;;;;;4978734;28;20047;-66
2023/01/04 10:19:17;;;;;;;53.88;7.85;;;14.40;99.90;;;;;;4981435;28;20038;-66
2023/01/04 10:22:05;;;;;;;61.05;9.43;;;14.80;99.90;;;;;;4993176;28;20038;-67
2023/01/04 10:24:52;;;;;;;51.97;8.65;;;13.90;99.90;;;;;;4965056;28;20066;-66
2023/01/04 10:27:48;;;;;;;53.53;9.15;;;14.70;99.90;;;;;;4974950;28;20050;-66
2023/01/04 10:30:37;;;;;;;53.55;8.25;;;14.70;99.90;;;;;;4961522;28;20551;-66
2023/01/04 10:33:10;;;;;;;45.58;7.60;;;14.10;99.90;;;;;;4966746;28;20050;-66
2023/01/04 10:35:36;;;;;;;41.20;7.07;;;14.50;99.90;;;;;;4964854;28;20535;-66
2023/01/04 10:38:09;;;;;;;54.35;8.95;;;14.60;99.90;;;;;;4995645;28;20058;-65
2023/01/04 10:40:38;;;;;;;37.97;6.22;;;14.40;99.90;;;;;;4977621;28;20129;-66
2023/01/04 10:43:35;;;;;;;43.20;7.32;;;14.40;99.90;;;;;;4982410;28;20484;-66
2023/01/04 10:46:04;;;;;;;44.22;7.45;;;14.40;99.90;;;;;;4976176;28;20038;-66
2023/01/04 10:48:50;;;;;;;41.78;7.80;;;14.60;99.90;;;;;;4998519;28;20042;-65
2023/01/04 10:51:23;;;;;;;53.50;8.65;;;14.70;99.90;;;;;;4978893;28;20050;-65
2023/01/04 10:54:00;;;;;;;36.88;7.70;;;14.90;99.90;;;;;;4977229;28;20066;-65
2023/01/04 10:56:48;;;;;;;58.08;8.65;;;14.70;99.90;;;;;;4978888;28;20038;-66
2023/01/04 10:59:42;;;;;;;54.03;9.30;;;14.80;99.90;;;;;;4975969;28;20068;-65
2023/01/04 11:02:26;;;;;;;61.38;10.25;;;14.90;99.90;;;;;;4982185;28;20077;-65
2023/01/04 11:05:12;;;;;;;55.58;9.05;;;14.70;99.90;;;;;;4984193;28;20120;-65
2023/01/04 11:07:52;;;;;;;66.72;10.60;;;14.60;99.90;;;;;;4981858;28;20060;-68
2023/01/04 11:10:29;;;;;;;74.03;10.73;;;14.70;99.90;;;;;;4982274;28;20041;-66
2023/01/04 11:12:54;;;;;;;56.55;9.15;;;14.50;99.90;;;;;;4980309;28;20092;-66
2023/01/04 11:15:20;;;;;;;52.30;8.35;;;14.60;99.90;;;;;;4984566;28;20137;-65
2023/01/04 11:17:47;;;;;;;52.00;9.88;;;14.60;99.90;;;;;;4980266;28;20049;-65
2023/01/04 11:20:12;;;;;;;34.85;7.20;;;14.60;99.90;;;;;;4979789;28;20062;-68
2023/01/04 11:22:51;;;;;;;62.95;8.15;;;14.80;99.90;;;;;;4982569;28;20081;-65
2023/01/04 11:25:20;;;;;;;47.25;9.48;;;14.60;99.90;;;;;;4977350;28;20641;-65
2023/01/04 11:27:59;;;;;;;54.83;8.05;;;14.80;99.90;;;;;;4980170;28;20038;-65
2023/01/04 11:30:31;;;;;;;49.42;7.60;;;14.80;99.90;;;;;;4979886;28;20065;-65
2023/01/04 11:33:19;;;;;;;60.75;9.18;;;14.80;99.90;;;;;;4990226;28;20030;-66
2023/01/04 11:35:51;;;;;;;49.75;8.02;;;14.80;99.90;;;;;;4969820;28;20548;-67
2023/01/04 11:38:20;;;;;;;43.55;7.47;;;14.60;99.90;;;;;;4980750;28;20030;-66
2023/01/04 11:41:14;;;;;;;53.67;8.32;;;14.80;99.90;;;;;;4983679;28;20069;-66
2023/01/04 11:43:54;;;;;;;39.35;7.70;;;14.70;99.90;;;;;;4978010;28;20116;-66
2023/01/04 11:46:25;;;;;;;38.97;6.95;;;14.60;99.90;;;;;;4994728;28;20084;-65
2023/01/04 11:48:52;;;;;;;43.45;7.03;;;15.00;99.90;;;;;;4988783;28;20050;-66
2023/01/04 11:51:27;;;;;;;37.05;7.07;;;15.20;99.90;;;;;;4984178;28;20042;-67
2023/01/04 11:54:13;;;;;;;37.65;6.07;;;15.30;99.90;;;;;;4994987;28;20042;-67
2023/01/04 11:56:55;;;;;;;37.55;6.63;;;15.30;99.90;;;;;;4959882;28;20518;-66
2023/01/04 11:59:21;;;;;;;41.58;6.57;;;15.00;99.90;;;;;;4984476;28;20066;-65
2023/01/04 12:01:48;;;;;;;39.45;5.90;;;14.90;99.90;;;;;;4988422;28;20077;-65
2023/01/04 12:04:24;;;;;;;41.72;6.72;;;14.90;99.90;;;;;;4987700;28;20042;-66
2023/01/04 12:06:54;;;;;;;36.55;7.00;;;14.90;99.90;;;;;;4988559;28;20080;-67
2023/01/04 12:09:20;;;;;;;37.70;6.93;;;14.90;99.90;;;;;;4989129;28;20119;-65
2023/01/04 12:11:49;;;;;;;31.33;7.20;;;14.60;99.90;;;;;;4987058;28;20621;-65
2023/01/04 12:14:38;;;;;;;23.48;4.88;;;14.70;99.90;;;;;;4989915;28;20550;-66
2023/01/04 12:17:30;;;;;;;32.35;6.15;;;14.70;99.90;;;;;;4982562;28;20058;-66
2023/01/04 12:20:00;;;;;;;44.47;7.43;;;14.50;99.90;;;;;;4977903;28;20081;-66
2023/01/04 12:22:37;;;;;;;39.90;7.03;;;14.70;99.90;;;;;;4981928;28;20479;-65
2023/01/04 12:25:20;;;;;;;34.40;5.70;;;13.00;99.90;;;;;;4986246;28;20054;-65
2023/01/04 12:27:50;;;;;;;36.63;5.93;;;12.50;99.90;;;;;;4980917;28;20073;-67
2023/01/04 12:30:44;;;;;;;44.35;7.60;;;12.80;99.90;;;;;;4985171;28;20582;-65
2023/01/04 12:33:28;;;;;;;31.02;5.72;;;12.40;99.90;;;;;;4990637;28;20038;-66
2023/01/04 12:36:08;;;;;;;41.10;6.72;;;12.50;99.90;;;;;;4976357;28;20133;-65
2023/01/04 12:38:54;;;;;;;42.28;6.80;;;13.00;99.90;;;;;;4989863;28;20040;-65
2023/01/04 12:41:33;;;;;;;50.10;7.32;;;13.10;99.90;;;;;;4982332;28;20046;-65
2023/01/04 12:44:00;;;;;;;37.42;6.85;;;13.50;99.90;;;;;;4979729;28;20061;-66
2023/01/04 12:49:25;;;;;;;47.08;7.78;;;13.40;99.90;;;;;;4985037;28;20052;-66
2023/01/04 12:52:09;;;;;;;50.92;8.23;;;13.30;99.90;;;;;;4993970;28;20373;-65
2023/01/04 12:54:49;;;;;;;56.75;8.60;;;13.20;99.90;;;;;;4998479;28;20754;-65
2023/01/04 12:57:15;;;;;;;43.72;6.68;;;12.90;99.90;;;;;;4986124;28;20470;-66
2023/01/04 12:59:57;;;;;;;58.40;9.00;;;12.90;99.90;;;;;;4998202;28;20034;-65
2023/01/04 13:02:30;;;;;;;45.28;7.80;;;12.90;99.90;;;;;;4985353;28;20047;-65
2023/01/04 13:05:17;;;;;;;52.35;8.52;;;12.90;99.90;;;;;;4978924;28;20038;-65
2023/01/04 13:07:55;;;;;;;48.38;8.52;;;13.00;99.90;;;;;;4982230;28;20176;-65
2023/01/04 13:10:45;;;;;;;49.78;9.02;;;13.10;99.90;;;;;;4988394;28;20073;-66
2023/01/04 13:13:28;;;;;;;61.65;9.32;;;13.30;99.90;;;;;;4985939;28;20630;-66
2023/01/04 13:16:20;;;;;;;59.22;9.32;;;13.40;99.90;;;;;;4991537;28;20431;-65
2023/01/04 13:18:49;;;;;;;54.15;8.63;;;13.90;99.90;;;;;;4952461;28;20050;-66
2023/01/04 13:21:16;;;;;;;43.40;7.55;;;13.60;99.90;;;;;;4976789;28;20061;-65
2023/01/04 13:23:50;;;;;;;49.90;9.20;;;13.60;99.90;;;;;;4977464;28;20042;-66
2023/01/04 13:26:31;;;;;;;51.92;8.55;;;13.40;99.90;;;;;;4992252;28;20571;-65
2023/01/04 13:29:06;;;;;;;54.17;9.05;;;13.20;99.90;;;;;;4987206;28;20041;-65
2023/01/04 13:31:53;;;;;;;50.47;7.22;;;13.20;99.90;;;;;;4970157;28;20065;-66
2023/01/04 13:34:20;;;;;;;51.22;8.30;;;13.20;99.90;;;;;;4976100;28;20060;-66
2023/01/04 13:37:27;;;;;;;57.35;8.82;;;13.10;99.90;;;;;;4985503;28;20656;-66
2023/01/04 13:40:00;;;;;;;52.83;9.10;;;12.80;99.90;;;;;;4972164;28;20054;-66
2023/01/04 13:42:29;;;;;;;51.55;8.07;;;13.00;99.90;;;;;;4992976;28;20048;-65